Antioch, South Carolina
Current Conditions -  °F | °C
As of 5:55 PM on Thursday 23 Oct 2014 (Local Time) from KCDN Reporting Station
Clear Clear  
Wind Chill: 66°   Ceiling: Unl
Heat Index: 66°   Visibility: 10mi
Dew Point: 41°   Wind: 0mph
Humidity: 40%   Direction: NA
Pressure: 30"   Gusts: NA
Location:  34.2974°N, 80.6089°W
Report Text: KCDN 232155Z AUTO 00000KT 10SM CLR 19/05 A3000 RMK AO2 TSNO
Loading
Personal Weather Stations






























Interactive Weather Map
Tropical Storm Tracking
New forecast layout! Learn more

10-Day Weather Forecast

Advertisements
Track Severe Weather on mobile